S&P 500   3,811.15
DOW   30,932.37
QQQ   314.14
pixel
S&P 500   3,811.15
DOW   30,932.37
QQQ   314.14
pixel
S&P 500   3,811.15
DOW   30,932.37
QQQ   314.14
pixel
S&P 500   3,811.15
DOW   30,932.37
QQQ   314.14
pixel
Log in
NASDAQ:RDNT

RadNet Institutional Ownership

$18.44
-0.33 (-1.76 %)
(As of 02/26/2021 12:00 AM ET)
Add
Compare
Today's Range
$18.41
Now: $18.44
$19.10
50-Day Range
$17.73
MA: $19.31
$21.10
52-Week Range
$5.81
Now: $18.44
$22.32
Volume216,024 shs
Average Volume184,604 shs
Market Capitalization$952.17 million
P/E RatioN/A
Dividend YieldN/A
Beta1.52

Institutional Ownership

Institutional Ownership Changes (13F Filings) for RadNet (NASDAQ:RDNT)

Institutional Ownership Percentage: 67.46%

Institutional Buying and Selling by Quarter


RadNet (NASDAQ RDNT) Institutional Buying and Selling

Reporting DateHedge FundShares HeldMarket Value% of PortfolioQuarterly Change in SharesOwnership in Company
2/25/2021Dimensional Fund Advisors LP1,543,363$30.20M0.0%-2.2%2.989%
2/25/2021Hsbc Holdings PLC29,134$0.57M0.0%-8.6%0.056%
2/19/2021JPMorgan Chase & Co.184,162$3.60M0.0%-52.0%0.357%
2/18/2021Truist Financial Corp174,199$3.41M0.0%+9.3%0.337%
2/17/2021SummerHaven Investment Management LLC26,966$0.53M0.4%N/A0.052%
2/17/2021Canada Pension Plan Investment Board37,100$0.73M0.0%N/A0.072%
2/16/2021SummerHaven Investment Management LLC527,725$0.53M0.4%N/A1.022%
2/16/2021Punch & Associates Investment Management Inc.657,299$12.86M0.9%-0.9%1.273%
2/16/2021Nuveen Asset Management LLC193,358$3.78M0.0%+3.4%0.374%
2/16/2021Captrust Financial Advisors12,190$0.24M0.0%+7.2%0.024%
2/16/2021Price T Rowe Associates Inc. MD41,906$0.82M0.0%-3.7%0.081%
2/16/2021ETF Managers Group LLC26,454$0.51M0.0%+9.7%0.051%
2/16/2021Engineers Gate Manager LP36,618$0.72M0.0%N/A0.071%
2/16/2021Charles Schwab Investment Management Inc.282,529$5.53M0.0%+0.8%0.547%
2/13/2021American International Group Inc.29,247$0.57M0.0%-2.4%0.057%
2/13/2021Ancora Advisors LLC78,470$1.54M0.0%+21.1%0.152%
2/12/2021Vantage Consulting Group Inc1,323$26K0.0%N/A0.003%
2/12/2021The Manufacturers Life Insurance Company 26,562$0.52M0.0%+2.6%0.051%
2/12/2021Credit Suisse AG49,224$0.96M0.0%+40.7%0.095%
2/12/2021Public Sector Pension Investment Board116,753$2.29M0.0%-2.8%0.226%
2/11/2021Trexquant Investment LP11,848$0.23M0.0%N/A0.023%
2/11/2021Northern Trust Corp551,799$10.80M0.0%-3.6%1.069%
2/11/2021Barclays PLC57,702$1.13M0.0%-7.4%0.112%
2/11/2021Citigroup Inc.95,891$1.88M0.0%+9.1%0.186%
2/10/2021Rhumbline Advisers125,556$2.46M0.0%+7.9%0.243%
2/10/2021Renaissance Technologies LLC1,438,470$28.15M0.0%-3.0%2.786%
2/10/2021Beck Mack & Oliver LLC2,027,466$39.68M1.3%+4.3%3.926%
2/10/2021Panagora Asset Management Inc.281,464$5.51M0.0%-1.5%0.545%
2/10/2021Global Alpha Capital Management Ltd.925,442$18.11M2.2%-4.6%1.792%
2/10/2021Tamarack Advisers LP650,000$12.09M2.5%+4.0%1.259%
2/9/2021Wells Fargo & Company MN91,862$1.80M0.0%-25.9%0.178%
2/9/2021Keybank National Association OH63,575$1.24M0.0%+154.4%0.123%
2/9/2021Bank of New York Mellon Corp417,234$8.17M0.0%-3.1%0.808%
2/9/2021ProShare Advisors LLC10,462$0.21M0.0%N/A0.020%
2/8/2021Royce & Associates LP257,505$5.04M0.0%+13.2%0.499%
2/8/2021New York State Common Retirement Fund59,459$1.16M0.0%+12.2%0.115%
2/8/2021Russell Investments Group Ltd.351,623$6.88M0.0%-7.3%0.681%
2/5/2021BlackRock Inc.6,540,626$128M0.0%+2.5%12.667%
2/5/2021Aperio Group LLC10,845$0.21M0.0%N/A0.021%
2/5/2021Swiss National Bank99,100$1.94M0.0%+2.1%0.192%
2/4/2021Texas Permanent School Fund34,413$0.67M0.0%-13.9%0.067%
2/4/2021GSA Capital Partners LLP11,675$0.23M0.0%N/A0.023%
2/2/2021First Trust Advisors LP109,962$2.15M0.0%-16.1%0.213%
2/1/2021Victory Capital Management Inc.134,674$2.64M0.0%-13.9%0.261%
2/1/2021Assenagon Asset Management S.A.114,300$2.24M0.0%-70.9%0.221%
1/27/2021Brave Asset Management Inc.19,530$0.38M0.1%N/A0.038%
1/25/2021Hennessy Advisors Inc.124,100$2.43M0.2%-2.6%0.240%
1/19/2021Miracle Mile Advisors LLC51,905$1.02M0.1%+31.7%0.101%
1/11/2021Dalton Greiner Hartman Maher & Co.373,733$7.31M1.5%-42.8%0.724%
1/8/2021State of Alaska Department of Revenue33,359$0.65M0.0%-15.4%0.065%
12/14/2020Strs Ohio32,400$0.50M0.0%-20.8%0.063%
11/18/2020Great West Life Assurance Co. Can46,361$0.71M0.0%-6.2%0.090%
11/17/2020Captrust Financial Advisors11,375$0.17M0.0%+21.7%0.022%
11/16/2020Cubist Systematic Strategies LLC12,029$0.19M0.0%-41.7%0.023%
11/16/2020Point72 Asset Management L.P.25,236$0.39M0.0%-79.2%0.049%
11/16/2020Voce Capital Management LLC228,157$3.50M2.2%+61.7%0.442%
11/16/2020Punch & Associates Investment Management Inc.662,962$10.18M0.9%+19.3%1.284%
11/16/2020Advantage Alpha Capital Partners LP283,674$4.35M1.0%-15.2%0.549%
11/13/2020Public Sector Pension Investment Board120,058$1.84M0.0%+28.4%0.233%
11/13/2020Morgan Stanley124,554$1.91M0.0%-5.3%0.241%
11/13/2020Charles Schwab Investment Management Inc.280,160$4.30M0.0%+0.9%0.543%
11/13/2020UBS Asset Management Americas Inc.44,270$0.68M0.0%+17.7%0.086%
11/13/2020Great West Life Assurance Co. Can214,025$32K0.0%+333.0%0.414%
11/12/2020Global Alpha Capital Management Ltd.970,042$14.89M2.3%-19.6%1.879%
11/12/2020JPMorgan Chase & Co.384,061$5.69M0.0%+113.7%0.744%
11/12/2020Arrowstreet Capital Limited Partnership180,213$2.77M0.0%-7.5%0.349%
11/12/2020Royce & Associates LP227,505$3.49M0.0%+3.2%0.441%
11/10/2020State Street Corp1,337,423$20.53M0.0%-2.8%2.593%
11/9/2020ClariVest Asset Management LLC23,500$0.36M0.0%-5.6%0.046%
11/9/2020Victory Capital Management Inc.156,344$2.40M0.0%-22.8%0.303%
11/6/2020BlackRock Inc.6,383,693$97.99M0.0%-0.7%12.377%
11/6/2020Principal Financial Group Inc.316,845$4.86M0.0%-2.1%0.614%
11/5/2020California Public Employees Retirement System100,750$1.55M0.0%+4.6%0.195%
11/5/2020First Trust Advisors LP131,050$2.01M0.0%+29.0%0.254%
11/5/2020Wells Fargo & Company MN123,901$1.90M0.0%-6.5%0.240%
11/4/2020Alps Advisors Inc.21,776$0.33M0.0%-11.2%0.042%
11/2/2020Beck Mack & Oliver LLC1,944,615$29.85M1.1%+0.5%3.770%
10/30/2020BNP Paribas Arbitrage SA40,475$0.62M0.0%+26.9%0.078%
10/29/2020Keybank National Association OH24,990$0.38M0.0%N/A0.048%
10/19/2020Pacer Advisors Inc.26,482$0.41M0.0%N/A0.051%
10/19/2020Louisiana State Employees Retirement System19,800$0.30M0.0%+74.8%0.038%
10/16/2020Hennessy Advisors Inc.127,400$1.96M0.1%-4.0%0.247%
10/16/2020Cadence Capital Management LLC23,553$0.36M0.1%-76.5%0.046%
10/9/2020Dalton Greiner Hartman Maher & Co.653,471$10.03M1.6%-35.0%1.267%
10/7/2020Assenagon Asset Management S.A.392,186$6.02M0.0%+444.7%0.760%
9/15/2020Two Sigma Advisers LP167,107$2.65M0.0%+13.7%0.324%
9/4/2020Principal Financial Group Inc.323,598$5.14M0.0%+2.1%0.627%
8/20/2020Charles Schwab Investment Management Inc.277,651$4.41M0.0%+5.3%0.538%
8/17/2020Zebra Capital Management LLC23,857$0.38M0.5%-3.9%0.046%
8/17/2020California State Teachers Retirement System64,933$1.03M0.0%+2.3%0.126%
8/17/2020Great West Life Assurance Co. Can49,426$0.78M0.0%-9.5%0.096%
8/17/2020Private Advisor Group LLC3,000$48K0.0%N/A0.006%
8/14/2020Captrust Financial Advisors9,345$0.15M0.0%-15.3%0.018%
8/14/2020Point72 Asset Management L.P.121,531$1.93M0.0%N/A0.236%
8/14/2020PDT Partners LLC56,969$0.90M0.1%+18.5%0.110%
8/14/2020Bank of America Corp DE96,730$1.54M0.0%-13.6%0.188%
8/14/2020Vanguard Group Inc.2,592,054$41.14M0.0%+0.3%5.026%
8/14/2020Silvercrest Asset Management Group LLC978,061$15.52M0.1%-3.3%1.896%
8/13/2020FMR LLC969,841$15.39M0.0%-51.5%1.880%
8/13/2020State of Tennessee Treasury Department25,970$0.41M0.0%+86.6%0.051%
(Data available from 1/1/2016 forward)

This page was last updated on 2/27/2021 by MarketBeat.com Staff

Enter your email address below to receive a concise daily summary of analysts' upgrades, downgrades and new coverage with MarketBeat.com's FREE daily email newsletter.